Terminal Aerodrome Forecast
Issued by NWS Charleston, WV

Current Version | Previous Version | Text Only | Print | Product List | Glossary Off
Versions: 1 2 3 4 5 6 7 8 9 10 11 12 13 14 15 16 17 18 19 20 21 22 23 24 25 26 27

882
FTUS41 KRLX 181739
TAFPKB
TAF
KPKB 181739Z 1818/1918 00000KT P6SM FEW040
     FM190400 00000KT P6SM FEW200
     FM190500 00000KT 4SM BR SCT001
     FM190600 00000KT 1/4SM FG OVC001
     FM191400 00000KT 5SM BR SCT002
     FM191500 00000KT P6SM SCT120=

USA.gov is the U.S. government's official web portal to all federal, state and local government web resources and services.